createdAt,value
2023-02-02T00:01:02.357Z,2.17
2023-02-02T00:03:30.369Z,2.37
2023-02-02T00:05:57.879Z,1.23
2023-02-02T00:08:25.254Z,1.17
2023-02-02T00:10:52.727Z,1.67
2023-02-02T00:13:20.107Z,0.73
2023-02-02T00:15:47.559Z,1.60
2023-02-02T00:18:15.030Z,1.80
2023-02-02T00:20:42.534Z,0.60
2023-02-02T00:23:09.983Z,0.40
2023-02-02T00:25:37.360Z,1.00
2023-02-02T00:28:05.158Z,0.40
2023-02-02T00:30:32.793Z,1.10
2023-02-02T00:33:00.236Z,1.33
2023-02-02T00:35:27.764Z,1.50
2023-02-02T00:37:55.127Z,0.63
2023-02-02T00:40:23.684Z,0.40
2023-02-02T00:42:51.299Z,1.60
2023-02-02T00:45:18.737Z,0.47
2023-02-02T00:47:49.899Z,0.93
2023-02-02T00:50:21.273Z,0.40
2023-02-02T00:52:49.404Z,0.83
2023-02-02T00:55:17.385Z,0.67
2023-02-02T00:57:44.864Z,0.63
2023-02-02T01:00:14.179Z,0.30
2023-02-02T01:02:41.685Z,0.77
2023-02-02T01:05:09.334Z,1.20
2023-02-02T01:07:36.749Z,1.03
2023-02-02T01:10:04.621Z,1.47
2023-02-02T01:12:32.154Z,1.60
2023-02-02T01:14:59.585Z,0.97
2023-02-02T01:17:26.984Z,0.53
2023-02-02T01:19:54.331Z,0.40
2023-02-02T01:22:21.701Z,0.50
2023-02-02T01:24:49.071Z,0.73
2023-02-02T01:27:16.387Z,1.97
2023-02-02T01:29:43.849Z,0.47
2023-02-02T01:32:11.396Z,0.63
2023-02-02T01:34:41.847Z,0.67
2023-02-02T01:37:09.533Z,0.63
2023-02-02T01:39:37.019Z,1.67
2023-02-02T01:42:04.647Z,1.63
2023-02-02T01:44:50.781Z,0.37
2023-02-02T01:47:18.720Z,0.40
2023-02-02T01:49:46.486Z,0.80
2023-02-02T01:52:14.835Z,1.13
2023-02-02T01:54:45.800Z,1.27
2023-02-02T01:57:16.047Z,0.40
2023-02-02T01:59:44.665Z,0.40
2023-02-02T02:02:12.071Z,0.30
2023-02-02T02:04:40.716Z,1.13
2023-02-02T02:07:08.262Z,0.70
2023-02-02T02:09:36.693Z,0.40
2023-02-02T02:12:04.161Z,2.07
2023-02-02T02:14:50.115Z,0.47
2023-02-02T02:17:20.908Z,0.40
2023-02-02T02:20:06.819Z,0.47
2023-02-02T02:23:10.094Z,1.40
2023-02-02T02:26:02.075Z,0.70
2023-02-02T02:29:02.136Z,0.90
2023-02-02T02:31:32.956Z,0.83
2023-02-02T02:34:02.609Z,1.63
2023-02-02T02:36:36.352Z,0.60
2023-02-02T02:39:10.362Z,0.40
2023-02-02T02:41:40.184Z,1.10
2023-02-02T02:44:10.661Z,1.30
2023-02-02T02:46:38.882Z,0.43
2023-02-02T02:49:09.439Z,0.93
2023-02-02T02:51:50.400Z,1.97
2023-02-02T03:12:27.078Z,0.87
2023-02-02T03:14:54.538Z,1.00
2023-02-02T03:17:22.070Z,1.17
2023-02-02T03:19:49.467Z,1.67
2023-02-02T03:22:16.939Z,1.73
2023-02-02T03:24:44.313Z,1.60
2023-02-02T03:27:11.829Z,0.40
2023-02-02T03:29:39.207Z,3.03
2023-02-02T03:32:06.658Z,1.43
2023-02-02T03:34:34.047Z,1.57
2023-02-02T03:37:01.453Z,0.40
2023-02-02T03:39:28.862Z,1.00
2023-02-02T03:41:56.272Z,1.77
2023-02-02T03:44:23.790Z,1.70
2023-02-02T03:46:54.618Z,2.53
2023-02-02T03:49:22.205Z,1.37
2023-02-02T03:51:49.619Z,0.40
2023-02-02T03:54:17.011Z,0.57
2023-02-02T03:56:44.442Z,2.23
2023-02-02T03:59:11.864Z,1.50
2023-02-02T04:01:39.308Z,1.13
2023-02-02T04:04:06.714Z,1.53
2023-02-02T04:06:34.185Z,1.20
2023-02-02T04:09:01.609Z,1.03
2023-02-02T04:11:29.086Z,1.63
2023-02-02T04:13:56.541Z,1.30
2023-02-02T04:16:23.975Z,1.33
2023-02-02T04:18:51.443Z,1.63
2023-02-02T04:21:18.956Z,1.53
2023-02-02T04:23:46.372Z,1.37
2023-02-02T04:26:13.787Z,1.87
2023-02-02T04:28:41.200Z,2.37
2023-02-02T04:31:08.658Z,1.93
2023-02-02T04:33:36.372Z,1.33
2023-02-02T04:36:04.249Z,1.73
2023-02-02T04:38:31.682Z,1.40
2023-02-02T04:41:06.773Z,1.33
2023-02-02T04:43:34.889Z,1.50
2023-02-02T04:46:02.361Z,1.33
2023-02-02T04:48:29.852Z,2.03
2023-02-02T04:51:01.196Z,0.93
2023-02-02T04:53:29.111Z,3.10
2023-02-02T04:55:56.947Z,1.93
2023-02-02T04:58:24.357Z,2.53
2023-02-02T05:00:51.843Z,2.07
2023-02-02T05:03:19.237Z,2.67
2023-02-02T05:05:46.745Z,3.47
2023-02-02T05:08:14.157Z,3.17
2023-02-02T05:10:42.183Z,2.23
2023-02-02T05:13:10.612Z,4.80
2023-02-02T05:15:38.299Z,2.63
2023-02-02T05:18:05.750Z,1.53
2023-02-02T05:20:33.149Z,3.67
2023-02-02T05:23:00.567Z,2.10
2023-02-02T05:25:28.021Z,1.80
2023-02-02T05:27:55.494Z,2.40
2023-02-02T05:30:22.964Z,3.50
2023-02-02T05:32:50.445Z,2.17
2023-02-02T05:35:17.930Z,2.33
2023-02-02T05:37:45.427Z,6.60
2023-02-02T05:40:12.877Z,7.10
2023-02-02T05:42:40.305Z,10.30
2023-02-02T05:45:07.976Z,15.90
2023-02-02T05:47:36.028Z,8.97
2023-02-02T05:50:03.730Z,5.30
2023-02-02T05:52:33.045Z,5.40
2023-02-02T05:55:00.645Z,3.23
2023-02-02T05:57:28.209Z,4.23
2023-02-02T05:59:55.718Z,2.03
2023-02-02T06:02:23.259Z,2.33
2023-02-02T06:04:50.710Z,2.93
2023-02-02T06:07:18.098Z,3.60
2023-02-02T06:09:45.525Z,1.57
2023-02-02T06:12:12.960Z,1.53
2023-02-02T06:14:40.395Z,2.47
2023-02-02T06:17:08.013Z,2.83
2023-02-02T06:19:35.478Z,2.10
2023-02-02T06:22:03.247Z,2.40
2023-02-02T06:24:30.727Z,1.00
2023-02-02T06:26:58.198Z,0.90
2023-02-02T06:29:28.103Z,3.10
2023-02-02T06:31:55.595Z,1.97
2023-02-02T06:34:23.151Z,1.70
2023-02-02T06:36:50.606Z,4.43
2023-02-02T06:39:18.113Z,2.73
2023-02-02T06:41:46.772Z,1.33
2023-02-02T06:44:15.417Z,3.90
2023-02-02T06:46:45.354Z,5.50
2023-02-02T06:49:12.797Z,0.47
2023-02-02T06:51:40.273Z,2.03
2023-02-02T06:54:07.759Z,3.97
2023-02-02T06:56:35.177Z,2.17
2023-02-02T06:59:02.612Z,3.10
2023-02-02T07:01:30.096Z,2.27
2023-02-02T07:03:57.617Z,0.80
2023-02-02T07:06:26.668Z,2.63
2023-02-02T07:09:01.733Z,2.83
2023-02-02T07:11:30.869Z,0.60
2023-02-02T07:13:58.792Z,0.83
2023-02-02T07:16:26.195Z,1.70
2023-02-02T07:18:53.628Z,0.83
2023-02-02T07:21:22.715Z,1.30
2023-02-02T07:23:50.426Z,2.03
2023-02-02T07:26:19.046Z,2.07
2023-02-02T07:28:46.820Z,2.77
2023-02-02T07:31:18.416Z,2.40
2023-02-02T07:33:48.625Z,4.07
2023-02-02T07:36:17.448Z,3.57
2023-02-02T07:38:45.936Z,2.30
2023-02-02T07:41:13.910Z,4.13
2023-02-02T07:43:41.614Z,2.77
2023-02-02T07:46:10.194Z,2.13
2023-02-02T07:48:37.823Z,3.00
2023-02-02T07:51:06.500Z,3.13
2023-02-02T07:53:36.322Z,3.50
2023-02-02T07:56:14.384Z,3.77
2023-02-02T07:58:42.305Z,4.37
2023-02-02T08:01:10.227Z,3.87
2023-02-02T08:03:38.204Z,4.10
2023-02-02T08:06:10.095Z,2.87
2023-02-02T08:08:37.499Z,2.77
2023-02-02T08:11:05.042Z,2.97
2023-02-02T08:13:32.512Z,4.33
2023-02-02T08:16:00.003Z,1.87
2023-02-02T08:18:27.503Z,2.37
2023-02-02T08:20:54.962Z,2.63
2023-02-02T08:23:23.775Z,1.27
2023-02-02T08:25:51.738Z,1.50
2023-02-02T08:28:19.298Z,2.00
2023-02-02T08:30:47.333Z,2.30
2023-02-02T08:33:14.781Z,1.90
2023-02-02T08:35:43.061Z,2.70
2023-02-02T08:38:10.689Z,1.43
2023-02-02T08:40:38.168Z,1.40
2023-02-02T08:43:06.049Z,2.43
2023-02-02T08:46:02.920Z,2.47
2023-02-02T08:48:25.457Z,3.47
2023-02-02T08:50:56.723Z,1.60
2023-02-02T08:53:24.468Z,1.37
2023-02-02T08:56:06.663Z,1.83
2023-02-02T08:58:34.594Z,3.30
2023-02-02T09:01:10.597Z,3.67
2023-02-02T09:03:40.316Z,2.17
2023-02-02T09:06:08.636Z,2.73
2023-02-02T09:08:36.124Z,1.97
2023-02-02T09:11:08.227Z,2.33
2023-02-02T09:13:36.495Z,3.30
2023-02-02T09:16:04.851Z,0.67
2023-02-02T09:18:32.526Z,1.23
2023-02-02T09:21:03.167Z,2.37
2023-02-02T09:23:31.494Z,1.07
2023-02-02T09:25:58.974Z,1.70
2023-02-02T09:28:26.364Z,1.17
2023-02-02T09:30:53.809Z,1.30
2023-02-02T09:33:21.262Z,0.77
2023-02-02T09:35:48.680Z,1.80
2023-02-02T09:38:16.076Z,1.60
2023-02-02T09:40:43.484Z,1.43
2023-02-02T09:43:38.795Z,1.83
2023-02-02T09:46:09.260Z,2.17
2023-02-02T09:48:55.412Z,2.73
2023-02-02T09:51:26.732Z,2.20
2023-02-02T09:54:02.795Z,1.53
2023-02-02T09:56:41.833Z,2.47
2023-02-02T09:59:20.414Z,3.20
2023-02-02T10:01:56.903Z,2.83
2023-02-02T10:04:33.382Z,2.00
2023-02-02T10:07:05.601Z,2.37
2023-02-02T10:09:40.548Z,3.77
2023-02-02T10:12:26.372Z,2.70
2023-02-02T10:14:59.714Z,3.87
2023-02-02T10:17:47.367Z,4.00
2023-02-02T10:20:14.852Z,2.77
2023-02-02T10:22:42.523Z,2.03
2023-02-02T10:25:12.919Z,0.93
2023-02-02T10:27:40.899Z,2.57
2023-02-02T10:30:19.448Z,2.43
2023-02-02T10:33:01.342Z,1.27
2023-02-02T10:35:37.237Z,2.23
2023-02-02T10:38:09.888Z,1.53
2023-02-02T10:40:48.327Z,1.60
2023-02-02T10:43:46.046Z,1.70
2023-02-02T10:46:33.843Z,2.00
2023-02-02T10:49:10.277Z,2.27
2023-02-02T10:51:38.217Z,2.63
2023-02-02T10:54:12.201Z,2.53
2023-02-02T10:56:43.229Z,2.13
2023-02-02T10:59:16.281Z,1.77
2023-02-02T11:01:43.733Z,2.03
2023-02-02T11:04:30.842Z,2.87
2023-02-02T11:07:01.151Z,3.53
2023-02-02T11:09:31.449Z,2.63
2023-02-02T11:12:04.533Z,2.13
2023-02-02T11:14:45.008Z,3.53
2023-02-02T11:17:20.614Z,3.53
2023-02-02T11:19:49.799Z,7.63
2023-02-02T11:22:25.796Z,12.53
2023-02-02T11:24:53.948Z,38.03
2023-02-02T11:27:23.462Z,48.33
2023-02-02T11:29:52.722Z,25.53
2023-02-02T11:32:20.587Z,13.73
2023-02-02T11:34:54.679Z,12.50
2023-02-02T11:37:23.624Z,8.87
2023-02-02T11:39:53.994Z,6.60
2023-02-02T11:42:23.166Z,6.23
2023-02-02T11:45:13.196Z,4.77
2023-02-02T11:47:41.461Z,3.73
2023-02-02T11:50:17.066Z,9.87
2023-02-02T11:52:46.707Z,94.03
2023-02-02T11:55:19.134Z,521.53
2023-02-02T11:58:05.342Z,498.90
2023-02-02T12:00:35.407Z,150.30
2023-02-02T12:03:02.817Z,62.93
2023-02-02T12:05:34.516Z,30.57
2023-02-02T12:08:01.952Z,16.47
2023-02-02T12:10:40.472Z,11.80
2023-02-02T12:13:26.315Z,11.40
2023-02-02T12:16:00.023Z,7.07
2023-02-02T12:18:51.139Z,11.43
2023-02-02T12:21:24.978Z,10.80
2023-02-02T12:23:58.261Z,6.70
2023-02-02T12:26:31.053Z,8.63
2023-02-02T12:29:01.785Z,8.83
2023-02-02T12:31:56.019Z,7.77
2023-02-02T12:34:42.118Z,8.93
2023-02-02T12:37:33.163Z,7.37
2023-02-02T12:40:18.840Z,7.00
2023-02-02T12:43:04.018Z,4.20
2023-02-02T12:45:34.778Z,5.30
2023-02-02T12:48:11.591Z,5.47
2023-02-02T12:50:55.675Z,3.40
2023-02-02T12:53:26.130Z,3.53
2023-02-02T12:56:01.162Z,3.30
2023-02-02T12:58:37.659Z,3.40
2023-02-02T13:01:14.574Z,3.00
2023-02-02T13:03:51.734Z,3.00
2023-02-02T13:06:28.351Z,4.67
2023-02-02T13:09:28.215Z,3.00
2023-02-02T13:11:58.979Z,3.17
2023-02-02T13:14:28.636Z,4.27
2023-02-02T13:17:00.192Z,5.43
2023-02-02T13:19:40.638Z,3.40
2023-02-02T13:22:11.845Z,5.23
2023-02-02T13:24:41.637Z,4.10
2023-02-02T13:27:11.684Z,4.13
2023-02-02T13:29:48.109Z,2.30
2023-02-02T13:32:31.596Z,2.27
2023-02-02T13:35:22.295Z,3.10
2023-02-02T13:38:02.318Z,4.00
2023-02-02T13:40:40.434Z,3.70
2023-02-02T13:43:17.727Z,2.10
2023-02-02T13:45:51.635Z,2.87
2023-02-02T13:48:19.082Z,3.90
2023-02-02T13:50:58.766Z,2.80
2023-02-02T13:53:26.201Z,1.87
2023-02-02T13:56:08.106Z,3.60
2023-02-02T13:58:38.413Z,3.67
2023-02-02T14:01:15.410Z,3.17
2023-02-02T14:03:44.434Z,4.40
2023-02-02T14:06:14.002Z,2.67
2023-02-02T14:08:45.994Z,2.77
2023-02-02T14:11:17.897Z,1.57
2023-02-02T14:14:11.574Z,3.80
2023-02-02T14:16:38.934Z,2.37
2023-02-02T14:19:08.434Z,3.37
2023-02-02T14:21:38.577Z,3.37
2023-02-02T14:24:15.155Z,2.67
2023-02-02T14:26:42.660Z,3.10
2023-02-02T14:29:31.639Z,2.97
2023-02-02T14:32:03.424Z,2.87
2023-02-02T14:34:40.791Z,1.60
2023-02-02T14:37:23.510Z,2.40
2023-02-02T14:39:57.255Z,2.40
2023-02-02T14:42:45.924Z,3.90
2023-02-02T14:45:13.384Z,3.10
2023-02-02T14:48:01.864Z,3.67
2023-02-02T14:50:38.445Z,2.70
2023-02-02T14:53:11.360Z,1.27
2023-02-02T14:55:52.673Z,2.83
2023-02-02T14:58:40.344Z,2.00
2023-02-02T15:01:11.002Z,2.13
2023-02-02T15:03:38.460Z,2.20
2023-02-02T15:06:08.832Z,2.67
2023-02-02T15:08:36.356Z,2.40
2023-02-02T15:11:25.573Z,3.93
2023-02-02T15:14:07.057Z,3.00
2023-02-02T15:16:37.146Z,3.87
2023-02-02T15:19:13.705Z,1.83
2023-02-02T15:21:41.790Z,2.63
2023-02-02T15:24:18.829Z,2.97
2023-02-02T15:26:46.579Z,2.30
2023-02-02T15:29:20.264Z,2.90
2023-02-02T15:31:50.335Z,2.77
2023-02-02T15:34:20.936Z,3.37
2023-02-02T15:36:49.399Z,2.37
2023-02-02T15:39:29.320Z,2.23
2023-02-02T15:42:21.245Z,2.33
2023-02-02T15:44:48.808Z,3.23
2023-02-02T15:47:17.790Z,7.77
2023-02-02T15:49:46.452Z,9.17
2023-02-02T15:52:15.426Z,5.63
2023-02-02T15:54:52.231Z,12.70
2023-02-02T15:57:36.102Z,5.63
2023-02-02T16:00:23.971Z,4.37
2023-02-02T16:03:07.015Z,6.60
2023-02-02T16:05:37.591Z,5.00
2023-02-02T16:08:13.338Z,4.27
2023-02-02T16:10:41.429Z,3.97
2023-02-02T16:13:08.942Z,4.67
2023-02-02T16:15:36.437Z,5.50
2023-02-02T16:18:05.369Z,5.90
2023-02-02T16:20:36.412Z,5.50
2023-02-02T16:23:06.110Z,5.77
2023-02-02T16:25:35.264Z,4.97
2023-02-02T16:28:03.486Z,5.20
2023-02-02T16:30:32.264Z,4.67
2023-02-02T16:32:59.728Z,3.40
2023-02-02T16:35:37.569Z,4.97
2023-02-02T16:38:25.202Z,4.30
2023-02-02T16:41:12.204Z,3.67
2023-02-02T16:43:40.908Z,4.07
2023-02-02T16:46:10.892Z,3.77
2023-02-02T16:48:44.358Z,4.70
2023-02-02T16:51:18.059Z,4.97
2023-02-02T16:53:47.137Z,3.77
2023-02-02T16:56:27.672Z,2.53
2023-02-02T16:58:58.194Z,2.47
2023-02-02T17:01:33.602Z,3.30
2023-02-02T17:04:01.454Z,4.60
2023-02-02T17:06:41.710Z,5.90
2023-02-02T17:09:28.916Z,4.30
2023-02-02T17:12:00.428Z,5.17
2023-02-02T17:14:29.352Z,4.87
2023-02-02T17:16:57.228Z,4.33
2023-02-02T17:19:29.081Z,4.07
2023-02-02T17:21:57.013Z,5.67
2023-02-02T17:24:24.461Z,10.37
2023-02-02T17:26:52.093Z,6.80
2023-02-02T17:29:20.547Z,5.17
2023-02-02T17:31:48.042Z,6.70
2023-02-02T17:34:15.965Z,4.93
2023-02-02T17:36:45.948Z,4.90
2023-02-02T17:39:13.654Z,51.80
2023-02-02T17:41:41.617Z,13.73
2023-02-02T17:44:10.734Z,34.77
2023-02-02T17:46:40.111Z,80.83
2023-02-02T17:49:15.139Z,65.77
2023-02-02T17:51:43.839Z,28.50
2023-02-02T17:54:12.520Z,34.73
2023-02-02T17:56:40.180Z,14.87
2023-02-02T17:59:07.791Z,11.63
2023-02-02T18:01:39.140Z,9.87
2023-02-02T18:04:06.801Z,10.17
2023-02-02T18:06:34.190Z,13.33
2023-02-02T18:09:01.602Z,14.97
2023-02-02T18:11:28.984Z,9.23
2023-02-02T18:13:56.738Z,9.77
2023-02-02T18:16:24.281Z,10.30
2023-02-02T18:18:51.822Z,9.00
2023-02-02T18:21:21.542Z,8.17
2023-02-02T18:23:49.649Z,8.70
2023-02-02T18:26:18.366Z,8.60
2023-02-02T18:28:46.320Z,8.80
2023-02-02T18:31:14.958Z,9.97
2023-02-02T18:33:42.728Z,8.70
2023-02-02T18:36:14.661Z,16.83
2023-02-02T18:38:46.300Z,9.73
2023-02-02T18:41:17.152Z,9.40
2023-02-02T18:43:48.415Z,9.27
2023-02-02T18:46:16.452Z,9.23
2023-02-02T18:48:43.946Z,9.27
2023-02-02T18:51:15.657Z,9.47
2023-02-02T18:53:43.861Z,8.43
2023-02-02T18:56:12.480Z,8.17
2023-02-02T18:58:40.163Z,8.67
2023-02-02T19:01:09.037Z,7.73
2023-02-02T19:03:36.915Z,8.30
2023-02-02T19:06:34.502Z,8.50
2023-02-02T19:09:01.911Z,7.60
2023-02-02T19:11:33.268Z,7.37
2023-02-02T19:14:00.760Z,7.90
2023-02-02T19:16:30.311Z,7.33
2023-02-02T19:19:12.364Z,7.53
2023-02-02T19:21:42.188Z,7.10
2023-02-02T19:24:13.533Z,7.90
2023-02-02T19:26:48.738Z,8.70
2023-02-02T19:29:21.000Z,7.23
2023-02-02T19:32:03.152Z,7.30
2023-02-02T19:34:30.794Z,6.93
2023-02-02T19:36:58.855Z,7.37
2023-02-02T19:39:29.178Z,8.10
2023-02-02T19:41:59.067Z,6.87
2023-02-02T19:44:30.086Z,7.97
2023-02-02T19:46:57.812Z,8.60
2023-02-02T19:49:31.697Z,9.77
2023-02-02T19:51:59.560Z,10.60
2023-02-02T19:54:34.677Z,11.57
2023-02-02T19:57:10.952Z,8.83
2023-02-02T19:59:38.365Z,9.10
2023-02-02T20:02:24.627Z,11.43
2023-02-02T20:04:59.920Z,8.70
2023-02-02T20:07:27.435Z,9.63
2023-02-02T20:09:55.984Z,8.23
2023-02-02T20:12:26.388Z,8.90
2023-02-02T20:14:53.936Z,9.00
2023-02-02T20:17:29.071Z,9.83
2023-02-02T20:19:56.703Z,9.43
2023-02-02T20:22:28.636Z,8.37
2023-02-02T20:24:57.353Z,8.30
2023-02-02T20:27:26.636Z,8.40
2023-02-02T20:29:55.001Z,7.97
2023-02-02T20:32:26.998Z,8.10
2023-02-02T20:34:55.407Z,8.77
2023-02-02T20:37:24.849Z,7.63
2023-02-02T20:39:55.259Z,8.20
2023-02-02T20:42:22.986Z,9.13
2023-02-02T20:44:50.572Z,9.57
2023-02-02T20:47:18.350Z,8.03
2023-02-02T20:49:46.140Z,7.67
2023-02-02T20:52:21.439Z,8.00
2023-02-02T20:54:49.168Z,8.43
2023-02-02T20:57:17.182Z,7.40
2023-02-02T20:59:44.817Z,8.43
2023-02-02T21:02:19.322Z,7.33
2023-02-02T21:04:48.142Z,8.53
2023-02-02T21:07:17.209Z,7.87
2023-02-02T21:09:45.208Z,8.20
2023-02-02T21:12:12.704Z,8.50
2023-02-02T21:14:40.477Z,8.07
2023-02-02T21:17:15.382Z,7.70
2023-02-02T21:19:43.918Z,7.50
2023-02-02T21:22:11.751Z,7.50
2023-02-02T21:24:39.219Z,8.17
2023-02-02T21:27:06.823Z,8.00
2023-02-02T21:29:34.318Z,8.07
2023-02-02T21:32:03.082Z,9.10
2023-02-02T21:34:31.205Z,7.50
2023-02-02T21:36:59.472Z,8.20
2023-02-02T21:39:33.024Z,7.73
2023-02-02T21:42:11.957Z,8.10
2023-02-02T21:44:40.708Z,8.43
2023-02-02T21:47:23.865Z,7.80
2023-02-02T21:49:51.406Z,8.60
2023-02-02T21:52:19.983Z,8.37
2023-02-02T21:54:47.880Z,7.23
2023-02-02T21:57:22.431Z,7.47
2023-02-02T21:59:53.935Z,7.83
2023-02-02T22:02:44.126Z,6.97
2023-02-02T22:05:14.755Z,8.00
2023-02-02T22:07:43.450Z,7.60
2023-02-02T22:10:23.573Z,7.90
2023-02-02T22:12:51.124Z,8.00
2023-02-02T22:15:21.643Z,7.57
2023-02-02T22:17:49.294Z,9.33
2023-02-02T22:20:17.405Z,8.37
2023-02-02T22:22:48.916Z,8.20
2023-02-02T22:25:21.040Z,7.50
2023-02-02T22:27:51.243Z,8.43
2023-02-02T22:30:25.894Z,8.13
2023-02-02T22:32:54.112Z,8.33
2023-02-02T22:35:21.583Z,7.73
2023-02-02T22:37:49.071Z,8.30
2023-02-02T22:40:16.691Z,10.20
2023-02-02T22:42:44.330Z,7.67
2023-02-02T22:45:11.838Z,9.03
2023-02-02T22:47:39.328Z,8.10
2023-02-02T22:50:07.015Z,8.63
2023-02-02T22:52:34.497Z,7.30
2023-02-02T22:55:01.969Z,7.97
2023-02-02T22:57:29.389Z,8.27
2023-02-02T22:59:56.799Z,7.67
2023-02-02T23:02:24.256Z,8.07
2023-02-02T23:04:51.677Z,8.07
2023-02-02T23:07:19.085Z,8.70
2023-02-02T23:09:46.478Z,7.93
2023-02-02T23:12:13.945Z,7.33
2023-02-02T23:14:41.383Z,7.83
2023-02-02T23:17:08.870Z,7.83
2023-02-02T23:19:36.296Z,8.20
2023-02-02T23:22:03.748Z,8.27
2023-02-02T23:24:31.218Z,8.17
2023-02-02T23:26:58.656Z,7.40
2023-02-02T23:29:26.083Z,8.23
2023-02-02T23:31:53.558Z,8.50
2023-02-02T23:34:21.036Z,9.20
2023-02-02T23:36:48.482Z,8.93
2023-02-02T23:39:15.891Z,9.73
2023-02-02T23:41:43.280Z,9.37
2023-02-02T23:44:10.691Z,8.30
2023-02-02T23:46:38.689Z,9.30
2023-02-02T23:49:06.343Z,9.57
2023-02-02T23:51:34.160Z,8.77
2023-02-02T23:54:01.936Z,10.03
2023-02-02T23:56:29.371Z,8.70
2023-02-02T23:58:56.879Z,9.17
